Overview Statistics Trail Chart Weather Telemetry Raw packets
 

This is the latest recevied weather packets stored in our database for station/object SV9TNF-51. If no packets are shown the sender has not sent any weather packets the latest 10 day(s).

<< 51 52 53 54 55 56 57 >>
Time Temp. Humidity Pressure Rain* Wind** Luminosity Snow
1788326316 24.44° C 73% 1011.9 hPa 0 mm 3.13 m/s, 167° - -
1788326016 24.44° C 72% 1011.9 hPa 0 mm 4.92 m/s, 188° - -
1788325716 25° C 77% 1011.9 hPa 0 mm 1.79 m/s, 148° - -
1788325416 24.44° C 77% 1011.9 hPa 0 mm 0 m/s - -
1788325116 24.44° C 75% 1011.9 hPa 0 mm 0.45 m/s, 128° - -
1788324816 23.89° C 72% 1011.9 hPa 0 mm 4.47 m/s, 336° - -
1788324516 23.33° C 73% 1011.5 hPa 0 mm 3.13 m/s, 353° - -
1788324216 23.33° C 74% 1011.5 hPa 0 mm 2.68 m/s, 330° - -
1788323916 23.33° C 74% 1011.5 hPa 0 mm 1.79 m/s, 98° - -
1788323616 23.33° C 75% 1011.5 hPa 0 mm 4.02 m/s, 342° - -
1788323316 23.33° C 77% 1011.5 hPa 0 mm 2.68 m/s, 220° - -
1788323015 23.33° C 79% 1011.5 hPa 0 mm 0 m/s - -
1788322715 23.33° C 78% 1011.5 hPa 0 mm 0.89 m/s, 121° - -
1788322415 22.78° C 76% 1011.5 hPa 0 mm 4.92 m/s, 354° - -
1788322116 22.78° C 77% 1011.5 hPa 0 mm 4.02 m/s, 336° - -
1788321815 22.78° C 77% 1011.5 hPa 0 mm 4.47 m/s, 331° - -
1788321515 22.22° C 71% 1011.5 hPa 0 mm 4.92 m/s, 317° - -
1788321215 22.22° C 71% 1011.5 hPa 0 mm 1.79 m/s, 156° - -
1788320915 22.22° C 69% 1011.2 hPa 0 mm 3.13 m/s, 183° - -
1788320614 22.78° C 71% 1011.2 hPa 0 mm 1.79 m/s, 131° - -
1788320315 23.33° C 72% 1011.2 hPa 0 mm 0 m/s - -
1788320015 23.33° C 71% 1011.2 hPa 0 mm 0.89 m/s, 128° - -
1788319714 23.33° C 69% 1011.2 hPa 0 mm 0 m/s - -
1788319414 23.33° C 67% 1011.2 hPa 0 mm 0 m/s - -
1788319114 23.89° C 67% 1011.2 hPa 0 mm 0.89 m/s, 131° - -

* Rain latest hour (hover to see other rain measurements)
** Current wind speed in m/s (hover to see current wind gust speed)